createdAt,value
2017-04-15T00:00:24.196Z,0
2017-04-15T00:01:25.477Z,0
2017-04-15T00:02:26.731Z,0
2017-04-15T00:03:27.961Z,0
2017-04-15T00:04:29.198Z,0
2017-04-15T00:05:30.432Z,0
2017-04-15T00:06:31.734Z,0
2017-04-15T00:07:33.004Z,0
2017-04-15T00:08:34.231Z,0
2017-04-15T00:09:35.585Z,0
2017-04-15T00:10:36.817Z,0
2017-04-15T00:11:38.050Z,0
2017-04-15T00:12:39.297Z,0
2017-04-15T00:13:40.618Z,0
2017-04-15T00:14:41.869Z,0
2017-04-15T00:15:43.116Z,0
2017-04-15T00:16:44.503Z,0
2017-04-15T00:17:45.757Z,0
2017-04-15T00:18:46.982Z,0
2017-04-15T00:19:48.369Z,0
2017-04-15T00:20:49.591Z,0
2017-04-15T00:21:50.878Z,0
2017-04-15T00:22:52.126Z,0
2017-04-15T00:23:53.373Z,0
2017-04-15T00:24:54.596Z,0
2017-04-15T00:25:55.846Z,0
2017-04-15T00:26:57.212Z,0
2017-04-15T00:27:58.431Z,0
2017-04-15T00:28:59.665Z,0
2017-04-15T00:30:00.913Z,0
2017-04-15T00:31:02.161Z,0
2017-04-15T00:32:03.403Z,0
2017-04-15T00:33:04.728Z,0
2017-04-15T00:34:05.987Z,0
2017-04-15T00:35:07.220Z,0
2017-04-15T00:36:08.457Z,0
2017-04-15T00:37:09.930Z,0
2017-04-15T00:38:11.116Z,0
2017-04-15T00:39:12.598Z,0
2017-04-15T00:40:13.841Z,0
2017-04-15T00:41:15.096Z,0
2017-04-15T00:42:16.527Z,0
2017-04-15T00:43:17.745Z,0
2017-04-15T00:44:19.001Z,0
2017-04-15T00:45:20.356Z,0
2017-04-15T00:46:21.591Z,0
2017-04-15T00:47:22.822Z,0
2017-04-15T00:48:24.227Z,0
2017-04-15T00:49:25.468Z,0
2017-04-15T00:50:26.707Z,0
2017-04-15T00:51:27.948Z,0
2017-04-15T00:52:29.221Z,0
2017-04-15T00:53:30.420Z,0
2017-04-15T00:54:31.671Z,0
2017-04-15T00:55:33.074Z,0
2017-04-15T00:56:34.335Z,0
2017-04-15T00:57:35.552Z,0
2017-04-15T00:58:36.782Z,0
2017-04-15T00:59:38.051Z,0
2017-04-15T01:00:39.329Z,0
2017-04-15T01:01:40.564Z,0
2017-04-15T01:02:41.821Z,0
2017-04-15T01:03:43.054Z,0
2017-04-15T01:04:44.359Z,0
2017-04-15T01:05:45.596Z,0
2017-04-15T01:06:46.815Z,0
2017-04-15T01:07:48.205Z,0
2017-04-15T01:08:49.402Z,0
2017-04-15T01:09:50.655Z,0
2017-04-15T01:10:51.888Z,0
2017-04-15T01:11:53.129Z,0
2017-04-15T01:12:54.384Z,0
2017-04-15T01:13:55.652Z,0
2017-04-15T01:14:56.894Z,0
2017-04-15T01:15:58.155Z,0
2017-04-15T01:16:59.390Z,0
2017-04-15T01:18:00.690Z,0
2017-04-15T01:19:01.950Z,0
2017-04-15T01:20:03.171Z,0
2017-04-15T01:21:04.420Z,0
2017-04-15T01:22:05.665Z,0
2017-04-15T01:23:07.008Z,0
2017-04-15T01:24:08.275Z,0
2017-04-15T01:25:09.510Z,0
2017-04-15T01:26:10.741Z,0
2017-04-15T01:27:12.006Z,0
2017-04-15T01:28:13.270Z,0
2017-04-15T01:29:14.494Z,0
2017-04-15T01:30:15.731Z,0
2017-04-15T01:31:16.989Z,0
2017-04-15T01:32:18.241Z,0
2017-04-15T01:33:19.509Z,0
2017-04-15T01:34:20.719Z,0
2017-04-15T01:35:22.055Z,0
2017-04-15T01:36:23.274Z,0
2017-04-15T01:37:24.575Z,0
2017-04-15T01:38:25.825Z,0
2017-04-15T01:39:27.125Z,0
2017-04-15T01:40:28.360Z,0
2017-04-15T01:41:29.665Z,0
2017-04-15T01:42:30.906Z,0
2017-04-15T01:43:32.172Z,0
2017-04-15T01:44:33.412Z,0
2017-04-15T01:45:34.669Z,0
2017-04-15T01:46:35.876Z,0
2017-04-15T01:47:37.137Z,0
2017-04-15T01:48:38.378Z,0
2017-04-15T01:49:39.617Z,0
2017-04-15T01:50:40.848Z,0
2017-04-15T01:51:42.110Z,0
2017-04-15T01:52:43.343Z,0
2017-04-15T01:53:44.591Z,0
2017-04-15T01:54:45.846Z,0
2017-04-15T01:55:47.099Z,0
2017-04-15T01:56:48.364Z,0
2017-04-15T01:57:49.624Z,0
2017-04-15T01:58:50.928Z,0
2017-04-15T01:59:52.246Z,0
2017-04-15T02:00:53.519Z,0
2017-04-15T02:01:54.813Z,0
2017-04-15T02:02:56.071Z,0
2017-04-15T02:03:57.289Z,0
2017-04-15T02:04:58.522Z,0
2017-04-15T02:05:59.763Z,0
2017-04-15T02:07:01.020Z,0
2017-04-15T02:08:02.256Z,0
2017-04-15T02:09:03.632Z,0
2017-04-15T02:10:04.890Z,0
2017-04-15T02:11:06.176Z,0
2017-04-15T02:12:07.388Z,0
2017-04-15T02:13:08.673Z,0
2017-04-15T02:14:09.919Z,0
2017-04-15T02:15:11.158Z,0
2017-04-15T02:16:12.492Z,0
2017-04-15T02:17:13.723Z,0
2017-04-15T02:18:14.971Z,0
2017-04-15T02:19:16.221Z,0
2017-04-15T02:20:17.492Z,0
2017-04-15T02:21:18.741Z,0
2017-04-15T02:22:19.992Z,0
2017-04-15T02:23:21.232Z,0
2017-04-15T02:24:22.507Z,0
2017-04-15T02:25:23.747Z,0
2017-04-15T02:26:25.006Z,0
2017-04-15T02:27:26.247Z,0
2017-04-15T02:28:27.484Z,0
2017-04-15T02:29:28.741Z,0
2017-04-15T02:30:29.970Z,0
2017-04-15T02:31:31.209Z,0
2017-04-15T02:32:32.513Z,0
2017-04-15T02:33:33.769Z,0
2017-04-15T02:34:34.982Z,0
2017-04-15T02:35:36.229Z,0
2017-04-15T02:36:37.493Z,0
2017-04-15T02:37:38.710Z,0
2017-04-15T02:38:40.032Z,0
2017-04-15T02:39:41.296Z,0
2017-04-15T02:40:42.559Z,0
2017-04-15T02:41:43.764Z,0
2017-04-15T02:42:45.033Z,0
2017-04-15T02:43:46.256Z,0
2017-04-15T02:44:47.564Z,0
2017-04-15T02:45:48.818Z,0
2017-04-15T02:46:50.139Z,0
2017-04-15T02:47:51.359Z,0
2017-04-15T02:48:52.609Z,0
2017-04-15T02:49:53.840Z,0
2017-04-15T02:50:55.063Z,0
2017-04-15T02:51:56.302Z,0
2017-04-15T02:52:57.534Z,0
2017-04-15T02:53:58.784Z,0
2017-04-15T02:55:00.026Z,0
2017-04-15T02:56:01.262Z,0
2017-04-15T02:57:02.509Z,0
2017-04-15T02:58:03.866Z,0
2017-04-15T02:59:05.109Z,0
2017-04-15T03:00:06.453Z,0
2017-04-15T03:01:07.685Z,0
2017-04-15T03:02:08.946Z,0
2017-04-15T03:03:10.287Z,0
2017-04-15T03:04:11.530Z,0
2017-04-15T03:05:12.802Z,0
2017-04-15T03:06:14.140Z,0
2017-04-15T03:07:15.375Z,0
2017-04-15T03:08:16.792Z,0
2017-04-15T03:09:18.124Z,0
2017-04-15T03:10:19.358Z,0
2017-04-15T03:11:20.595Z,0
2017-04-15T03:12:21.828Z,0
2017-04-15T03:13:23.069Z,0
2017-04-15T03:14:24.333Z,0
2017-04-15T03:15:25.690Z,0
2017-04-15T03:16:26.842Z,0
2017-04-15T03:17:28.170Z,0
2017-04-15T03:18:29.327Z,0
2017-04-15T03:19:30.837Z,0
2017-04-15T03:20:32.076Z,0
2017-04-15T03:21:33.300Z,0
2017-04-15T03:22:34.586Z,0
2017-04-15T03:23:35.818Z,0
2017-04-15T03:24:37.056Z,0
2017-04-15T03:25:38.324Z,0
2017-04-15T03:26:39.589Z,0
2017-04-15T03:27:40.899Z,0
2017-04-15T03:28:42.155Z,0
2017-04-15T03:29:43.436Z,0
2017-04-15T03:30:44.685Z,0
2017-04-15T03:31:45.924Z,0
2017-04-15T03:32:47.163Z,0
2017-04-15T03:33:48.520Z,0
2017-04-15T03:34:50.085Z,0
2017-04-15T03:35:51.252Z,0
2017-04-15T03:36:52.457Z,0
2017-04-15T03:37:53.712Z,0
2017-04-15T03:38:54.935Z,0
2017-04-15T03:39:56.258Z,0
2017-04-15T03:40:57.497Z,0
2017-04-15T03:41:58.736Z,0
2017-04-15T03:42:59.993Z,0
2017-04-15T03:44:01.200Z,0
2017-04-15T03:45:02.496Z,0
2017-04-15T03:46:03.762Z,0
2017-04-15T03:47:04.999Z,0
2017-04-15T03:48:06.279Z,0
2017-04-15T03:49:07.489Z,0
2017-04-15T03:50:08.740Z,0
2017-04-15T03:51:09.987Z,0
2017-04-15T03:52:11.298Z,0
2017-04-15T03:53:12.540Z,0
2017-04-15T03:54:14.133Z,0
2017-04-15T03:55:15.373Z,0
2017-04-15T03:56:16.608Z,0
2017-04-15T03:57:17.966Z,0
2017-04-15T03:58:19.188Z,0
2017-04-15T03:59:20.451Z,0
2017-04-15T04:00:21.719Z,0
2017-04-15T04:01:22.956Z,0
2017-04-15T04:02:24.319Z,0
2017-04-15T04:03:25.657Z,0
2017-04-15T04:04:26.905Z,0
2017-04-15T04:05:28.116Z,0
2017-04-15T04:06:29.381Z,0
2017-04-15T04:07:30.609Z,0
2017-04-15T04:08:31.848Z,0
2017-04-15T04:09:33.072Z,0
2017-04-15T04:10:34.331Z,0
2017-04-15T04:11:35.558Z,0
2017-04-15T04:12:36.851Z,0
2017-04-15T04:13:38.090Z,0
2017-04-15T04:14:39.334Z,0
2017-04-15T04:15:40.580Z,0
2017-04-15T04:16:41.823Z,0
2017-04-15T04:17:43.065Z,0
2017-04-15T04:18:44.343Z,0
2017-04-15T04:19:45.580Z,0
2017-04-15T04:20:46.836Z,0
2017-04-15T04:21:48.076Z,0
2017-04-15T04:22:49.292Z,0
2017-04-15T04:23:50.680Z,0
2017-04-15T04:24:51.927Z,0
2017-04-15T04:25:53.146Z,0
2017-04-15T04:26:54.456Z,0
2017-04-15T04:27:55.723Z,0
2017-04-15T04:28:56.968Z,0
2017-04-15T04:29:58.191Z,0
2017-04-15T04:30:59.448Z,0
2017-04-15T04:32:00.671Z,0
2017-04-15T04:33:01.903Z,0
2017-04-15T04:34:03.140Z,0
2017-04-15T04:35:04.424Z,0
2017-04-15T04:36:05.878Z,0
2017-04-15T04:37:07.119Z,0
2017-04-15T04:38:08.450Z,0
2017-04-15T04:39:09.678Z,0
2017-04-15T04:40:10.935Z,0
2017-04-15T04:41:12.146Z,0
2017-04-15T04:42:13.511Z,5
2017-04-15T04:43:14.673Z,5
2017-04-15T04:44:15.892Z,5
2017-04-15T04:45:17.111Z,5
2017-04-15T04:46:18.368Z,5
2017-04-15T04:47:19.600Z,5
2017-04-15T04:48:20.840Z,10
2017-04-15T04:49:22.098Z,10
2017-04-15T04:50:23.418Z,10
2017-04-15T04:51:24.658Z,10
2017-04-15T04:52:25.933Z,10
2017-04-15T04:53:27.156Z,10
2017-04-15T04:54:28.421Z,10
2017-04-15T04:55:29.685Z,10
2017-04-15T04:56:30.911Z,15
2017-04-15T04:57:32.241Z,10
2017-04-15T04:58:33.489Z,10
2017-04-15T04:59:34.730Z,15
2017-04-15T05:00:36.010Z,20
2017-04-15T05:01:37.240Z,20
2017-04-15T05:02:38.789Z,20
2017-04-15T05:03:40.064Z,15
2017-04-15T05:04:41.277Z,15
2017-04-15T05:05:42.537Z,15
2017-04-15T05:06:43.832Z,20
2017-04-15T05:07:45.025Z,20
2017-04-15T05:08:46.257Z,20
2017-04-15T05:09:47.513Z,25
2017-04-15T05:10:48.754Z,25
2017-04-15T05:11:49.971Z,30
2017-04-15T05:12:51.208Z,25
2017-04-15T05:13:52.465Z,25
2017-04-15T05:14:53.747Z,30
2017-04-15T05:15:54.925Z,35
2017-04-15T05:16:56.278Z,35
2017-04-15T05:17:57.515Z,35
2017-04-15T05:18:58.747Z,35
2017-04-15T05:19:59.997Z,40
2017-04-15T05:21:01.255Z,35
2017-04-15T05:22:02.515Z,35
2017-04-15T05:23:03.758Z,35
2017-04-15T05:24:04.991Z,35
2017-04-15T05:25:06.235Z,30
2017-04-15T05:26:07.457Z,35
2017-04-15T05:27:08.830Z,35
2017-04-15T05:28:10.109Z,40
2017-04-15T05:29:11.323Z,40
2017-04-15T05:30:12.561Z,45
2017-04-15T05:31:13.796Z,45
2017-04-15T05:32:15.053Z,40
2017-04-15T05:33:16.356Z,35
2017-04-15T05:34:17.598Z,30
2017-04-15T05:35:18.860Z,40
2017-04-15T05:36:20.081Z,50
2017-04-15T05:37:21.333Z,50
2017-04-15T05:38:22.596Z,45
2017-04-15T05:39:23.897Z,40
2017-04-15T05:40:25.098Z,45
2017-04-15T05:41:26.342Z,35
2017-04-15T05:42:27.626Z,35
2017-04-15T05:43:28.866Z,45
2017-04-15T05:44:30.222Z,60
2017-04-15T05:45:31.362Z,65
2017-04-15T05:46:32.842Z,60
2017-04-15T05:47:34.129Z,60
2017-04-15T05:48:35.387Z,50
2017-04-15T05:49:36.609Z,45
2017-04-15T05:50:37.826Z,40
2017-04-15T05:51:39.121Z,35
2017-04-15T05:52:40.425Z,40
2017-04-15T05:53:41.689Z,55
2017-04-15T05:54:42.953Z,70
2017-04-15T05:55:44.193Z,65
2017-04-15T05:56:45.436Z,60
2017-04-15T05:57:46.951Z,50
2017-04-15T05:58:48.298Z,40
2017-04-15T05:59:49.530Z,40
2017-04-15T06:00:50.767Z,45
2017-04-15T06:01:52.011Z,65
2017-04-15T06:02:53.378Z,60
2017-04-15T06:03:54.651Z,60
2017-04-15T06:04:55.888Z,50
2017-04-15T06:05:57.137Z,45
2017-04-15T06:06:58.376Z,50
2017-04-15T06:07:59.625Z,50
2017-04-15T06:09:00.941Z,65
2017-04-15T06:10:02.189Z,85
2017-04-15T06:11:03.488Z,65
2017-04-15T06:12:04.739Z,60
2017-04-15T06:13:05.980Z,55
2017-04-15T06:14:07.218Z,65
2017-04-15T06:15:08.470Z,80
2017-04-15T06:16:09.721Z,80
2017-04-15T06:17:10.958Z,90
2017-04-15T06:18:12.285Z,95
2017-04-15T06:19:13.528Z,85
2017-04-15T06:20:14.764Z,70
2017-04-15T06:21:16.070Z,65
2017-04-15T06:22:17.325Z,65
2017-04-15T06:23:18.656Z,70
2017-04-15T06:24:19.943Z,75
2017-04-15T06:25:21.196Z,105
2017-04-15T06:26:22.440Z,95
2017-04-15T06:27:23.707Z,85
2017-04-15T06:28:25.075Z,70
2017-04-15T06:29:26.395Z,65
2017-04-15T06:30:27.632Z,75
2017-04-15T06:31:28.874Z,65
2017-04-15T06:32:30.168Z,60
2017-04-15T06:33:31.443Z,55
2017-04-15T06:34:33.066Z,65
2017-04-15T06:35:34.397Z,95
2017-04-15T06:36:35.622Z,110
2017-04-15T06:37:36.892Z,90
2017-04-15T06:38:38.238Z,65
2017-04-15T06:39:39.477Z,65
2017-04-15T06:40:40.722Z,65
2017-04-15T06:41:41.954Z,60
2017-04-15T06:42:43.272Z,70
2017-04-15T06:43:44.515Z,55
2017-04-15T06:44:45.760Z,65
2017-04-15T06:45:47.012Z,85
2017-04-15T06:46:48.304Z,90
2017-04-15T06:47:49.546Z,110
2017-04-15T06:48:50.792Z,115
2017-04-15T06:49:52.029Z,100
2017-04-15T06:50:53.288Z,90
2017-04-15T06:51:54.554Z,105
2017-04-15T06:52:55.806Z,100
2017-04-15T06:53:57.042Z,115
2017-04-15T06:54:58.279Z,110
2017-04-15T06:55:59.510Z,140
2017-04-15T06:57:00.749Z,125
2017-04-15T06:58:02.107Z,120
2017-04-15T06:59:03.478Z,130
2017-04-15T07:00:04.718Z,130
2017-04-15T07:01:05.944Z,140
2017-04-15T07:02:07.183Z,125
2017-04-15T07:03:08.457Z,150
2017-04-15T07:04:09.715Z,155
2017-04-15T07:05:10.931Z,140
2017-04-15T07:06:12.304Z,115
2017-04-15T07:07:13.521Z,110
2017-04-15T07:08:14.768Z,150
2017-04-15T07:09:16.025Z,160
2017-04-15T07:10:17.253Z,115
2017-04-15T07:11:18.555Z,100
2017-04-15T07:12:19.825Z,95
2017-04-15T07:13:21.061Z,105
2017-04-15T07:14:22.310Z,80
2017-04-15T07:15:23.556Z,80
2017-04-15T07:16:24.772Z,85
2017-04-15T07:17:26.053Z,70
2017-04-15T07:18:27.268Z,80
2017-04-15T07:19:28.597Z,85
2017-04-15T07:20:29.842Z,80
2017-04-15T07:21:31.097Z,80
2017-04-15T07:22:32.412Z,75
2017-04-15T07:23:33.680Z,75
2017-04-15T07:24:34.907Z,75
2017-04-15T07:25:36.140Z,65
2017-04-15T07:26:37.382Z,55
2017-04-15T07:27:38.627Z,50
2017-04-15T07:28:39.908Z,50
2017-04-15T07:29:41.256Z,50
2017-04-15T07:30:42.543Z,45
2017-04-15T07:31:43.801Z,35
2017-04-15T07:32:45.061Z,40
2017-04-15T07:33:46.297Z,55
2017-04-15T07:34:47.616Z,75
2017-04-15T07:35:48.862Z,90
2017-04-15T07:36:50.159Z,90
2017-04-15T07:37:51.389Z,85
2017-04-15T07:38:52.738Z,140
2017-04-15T07:39:54.134Z,190
2017-04-15T07:40:55.364Z,215
2017-04-15T07:41:56.656Z,205
2017-04-15T07:42:57.915Z,180
2017-04-15T07:43:59.253Z,160
2017-04-15T07:45:00.653Z,160
2017-04-15T07:46:01.880Z,160
2017-04-15T07:47:03.143Z,130
2017-04-15T07:48:04.438Z,115
2017-04-15T07:49:05.654Z,75
2017-04-15T07:50:06.921Z,55
2017-04-15T07:51:08.181Z,65
2017-04-15T07:52:09.440Z,90
2017-04-15T07:53:10.658Z,175
2017-04-15T07:54:11.906Z,260
2017-04-15T07:55:13.249Z,250
2017-04-15T07:56:14.481Z,320
2017-04-15T07:57:15.723Z,415
2017-04-15T07:58:16.990Z,495
2017-04-15T07:59:18.253Z,500
2017-04-15T08:00:19.491Z,490
2017-04-15T08:01:20.801Z,555
2017-04-15T08:02:22.048Z,610
2017-04-15T08:03:23.325Z,410
2017-04-15T08:04:24.551Z,495
2017-04-15T08:05:25.785Z,570
2017-04-15T08:06:27.034Z,620
2017-04-15T08:07:28.282Z,520
2017-04-15T08:08:29.532Z,430
2017-04-15T08:09:30.775Z,290
2017-04-15T08:10:32.042Z,290
2017-04-15T08:11:33.279Z,340
2017-04-15T08:12:34.524Z,255
2017-04-15T08:13:35.862Z,225
2017-04-15T08:14:37.157Z,190
2017-04-15T08:15:38.411Z,205
2017-04-15T08:16:39.658Z,265
2017-04-15T08:17:40.887Z,245
2017-04-15T08:18:42.193Z,195
2017-04-15T08:19:43.413Z,195
2017-04-15T08:20:44.641Z,235
2017-04-15T08:21:45.885Z,325
2017-04-15T08:22:47.121Z,405
2017-04-15T08:23:48.398Z,425
2017-04-15T08:24:49.601Z,345
2017-04-15T08:25:51.036Z,325
2017-04-15T08:26:52.298Z,315
2017-04-15T08:27:53.534Z,300
2017-04-15T08:28:54.769Z,270
2017-04-15T08:29:56.092Z,245
2017-04-15T08:30:57.350Z,305
2017-04-15T08:31:58.582Z,310
2017-04-15T08:32:59.825Z,310
2017-04-15T08:34:01.096Z,315
2017-04-15T08:35:02.335Z,295
2017-04-15T08:36:03.570Z,320
2017-04-15T08:37:04.807Z,350
2017-04-15T08:38:06.064Z,385
2017-04-15T08:39:07.299Z,460
2017-04-15T08:40:08.670Z,510
2017-04-15T08:41:09.906Z,590
2017-04-15T08:42:11.198Z,725
2017-04-15T08:43:12.459Z,760
2017-04-15T08:44:13.684Z,800
2017-04-15T08:45:14.958Z,830
2017-04-15T08:46:16.202Z,625
2017-04-15T08:47:17.440Z,695
2017-04-15T08:48:18.687Z,705
2017-04-15T08:49:19.928Z,735
2017-04-15T08:50:21.181Z,700
2017-04-15T08:51:22.428Z,685
2017-04-15T08:52:23.747Z,730
2017-04-15T08:53:25.018Z,830
2017-04-15T08:54:26.296Z,860
2017-04-15T08:55:27.562Z,860
2017-04-15T08:56:28.835Z,820
2017-04-15T08:57:30.114Z,830
2017-04-15T08:58:31.362Z,775
2017-04-15T08:59:32.679Z,630
2017-04-15T09:00:34.069Z,645
2017-04-15T09:01:35.306Z,620
2017-04-15T09:02:36.545Z,585
2017-04-15T09:03:37.831Z,640
2017-04-15T09:04:39.069Z,630
2017-04-15T09:05:40.344Z,655
2017-04-15T09:06:41.575Z,640
2017-04-15T09:07:42.828Z,625
2017-04-15T09:08:44.173Z,580
2017-04-15T09:09:45.424Z,520
2017-04-15T09:10:46.676Z,450
2017-04-15T09:11:48.032Z,405
2017-04-15T09:12:49.269Z,365
2017-04-15T09:13:50.508Z,330
2017-04-15T09:14:51.751Z,300
2017-04-15T09:15:53.046Z,280
2017-04-15T09:16:54.317Z,300
2017-04-15T09:17:55.568Z,330
2017-04-15T09:18:56.807Z,295
2017-04-15T09:19:58.058Z,285
2017-04-15T09:20:59.323Z,305
2017-04-15T09:22:00.597Z,275
2017-04-15T09:23:01.859Z,305
2017-04-15T09:24:03.200Z,325
2017-04-15T09:25:04.448Z,460
2017-04-15T09:26:05.703Z,415
2017-04-15T09:27:06.947Z,455
2017-04-15T09:28:08.276Z,490
2017-04-15T09:29:09.540Z,475
2017-04-15T09:30:10.794Z,400
2017-04-15T09:31:12.148Z,325
2017-04-15T09:32:13.369Z,295
2017-04-15T09:33:14.629Z,295
2017-04-15T09:34:15.889Z,275
2017-04-15T09:35:17.132Z,260
2017-04-15T09:36:18.431Z,300
2017-04-15T09:37:19.671Z,315
2017-04-15T09:38:20.922Z,265
2017-04-15T09:39:22.162Z,295
2017-04-15T09:40:23.407Z,280
2017-04-15T09:41:24.666Z,245
2017-04-15T09:42:25.905Z,290
2017-04-15T09:43:27.156Z,295
2017-04-15T09:44:28.507Z,235
2017-04-15T09:45:29.750Z,220
2017-04-15T09:46:31.000Z,165
2017-04-15T09:47:32.305Z,140
2017-04-15T09:48:33.542Z,200
2017-04-15T09:49:34.826Z,130
2017-04-15T09:50:36.089Z,105
2017-04-15T09:51:37.400Z,85
2017-04-15T09:52:38.667Z,85
2017-04-15T09:53:40.007Z,75
2017-04-15T09:54:41.172Z,65
2017-04-15T09:55:42.434Z,100
2017-04-15T09:56:43.688Z,175
2017-04-15T09:57:44.923Z,125
2017-04-15T09:58:46.167Z,100
2017-04-15T09:59:47.630Z,125
2017-04-15T10:00:48.931Z,110
2017-04-15T10:01:50.184Z,150
2017-04-15T10:02:51.422Z,155
2017-04-15T10:03:52.666Z,175
2017-04-15T10:04:53.896Z,230
2017-04-15T10:05:55.225Z,185
2017-04-15T10:06:56.474Z,220
2017-04-15T10:07:57.721Z,260
2017-04-15T10:08:59.095Z,225
2017-04-15T10:10:00.334Z,235
2017-04-15T10:11:01.567Z,280
2017-04-15T10:12:02.798Z,235
2017-04-15T10:13:04.186Z,210
2017-04-15T10:14:05.421Z,210
2017-04-15T10:15:06.661Z,200
2017-04-15T10:16:07.895Z,190
2017-04-15T10:17:09.174Z,195
2017-04-15T10:18:10.492Z,235
2017-04-15T10:19:11.748Z,250
2017-04-15T10:20:13.080Z,300
2017-04-15T10:21:14.342Z,345
2017-04-15T10:22:15.560Z,320
2017-04-15T10:23:16.824Z,370
2017-04-15T10:24:18.113Z,400
2017-04-15T10:25:19.348Z,425
2017-04-15T10:26:20.615Z,390
2017-04-15T10:27:21.858Z,335
2017-04-15T10:28:23.095Z,325
2017-04-15T10:29:24.417Z,305
2017-04-15T10:30:25.703Z,280
2017-04-15T10:31:26.948Z,285
2017-04-15T10:32:28.240Z,320
2017-04-15T10:33:29.480Z,275
2017-04-15T10:34:30.806Z,260
2017-04-15T10:35:32.153Z,305
2017-04-15T10:36:33.389Z,350
2017-04-15T10:37:34.650Z,390
2017-04-15T10:38:35.883Z,400
2017-04-15T10:39:37.183Z,440
2017-04-15T10:40:38.412Z,490
2017-04-15T10:41:39.670Z,460
2017-04-15T10:42:41.009Z,500
2017-04-15T10:43:42.262Z,500
2017-04-15T10:44:43.521Z,530
2017-04-15T10:45:44.785Z,645
2017-04-15T10:46:46.108Z,740
2017-04-15T10:47:47.357Z,840
2017-04-15T10:48:48.681Z,845
2017-04-15T10:49:49.931Z,835
2017-04-15T10:50:51.203Z,845
2017-04-15T10:51:52.460Z,790
2017-04-15T10:52:53.708Z,725
2017-04-15T10:53:54.947Z,705
2017-04-15T10:54:56.206Z,595
2017-04-15T10:55:57.531Z,605
2017-04-15T10:56:58.760Z,650
2017-04-15T10:57:59.990Z,705
2017-04-15T10:59:01.244Z,725
2017-04-15T11:00:02.500Z,720
2017-04-15T11:01:03.706Z,650
2017-04-15T11:02:05.057Z,655
2017-04-15T11:03:06.310Z,770
2017-04-15T11:04:07.585Z,675
2017-04-15T11:05:08.901Z,630
2017-04-15T11:06:10.135Z,455
2017-04-15T11:07:11.386Z,540
2017-04-15T11:08:12.633Z,360
2017-04-15T11:09:13.879Z,305
2017-04-15T11:10:15.281Z,505
2017-04-15T11:11:16.552Z,530
2017-04-15T11:12:17.809Z,555
2017-04-15T11:13:19.058Z,620
2017-04-15T11:14:20.307Z,495
2017-04-15T11:15:21.582Z,505
2017-04-15T11:16:22.807Z,470
2017-04-15T11:17:24.086Z,425
2017-04-15T11:18:25.335Z,485
2017-04-15T11:19:26.565Z,410
2017-04-15T11:20:27.924Z,335
2017-04-15T11:21:29.109Z,310
2017-04-15T11:22:30.358Z,295
2017-04-15T11:23:31.608Z,265
2017-04-15T11:24:32.841Z,245
2017-04-15T11:25:34.107Z,330
2017-04-15T11:26:35.321Z,425
2017-04-15T11:27:36.557Z,405
2017-04-15T11:28:37.806Z,430
2017-04-15T11:29:39.045Z,370
2017-04-15T11:30:40.302Z,360
2017-04-15T11:31:41.561Z,320
2017-04-15T11:32:42.872Z,270
2017-04-15T11:33:44.111Z,275
2017-04-15T11:34:45.350Z,295
2017-04-15T11:35:46.601Z,315
2017-04-15T11:36:47.849Z,305
2017-04-15T11:37:49.098Z,320
2017-04-15T11:38:50.476Z,325
2017-04-15T11:39:51.731Z,425
2017-04-15T11:40:53.116Z,510
2017-04-15T11:41:54.372Z,515
2017-04-15T11:42:55.598Z,520
2017-04-15T11:43:56.858Z,565
2017-04-15T11:44:58.119Z,630
2017-04-15T11:45:59.387Z,700
2017-04-15T11:47:00.711Z,735
2017-04-15T11:48:02.021Z,740
2017-04-15T11:49:03.289Z,720
2017-04-15T11:50:04.681Z,665
2017-04-15T11:51:05.963Z,595
2017-04-15T11:52:07.367Z,585
2017-04-15T11:53:08.618Z,570
2017-04-15T11:54:09.881Z,575
2017-04-15T11:55:11.154Z,575
2017-04-15T11:56:12.424Z,575
2017-04-15T11:57:13.887Z,590
2017-04-15T11:58:15.106Z,630
2017-04-15T11:59:16.340Z,640
2017-04-15T12:00:17.581Z,725
2017-04-15T12:01:18.806Z,760
2017-04-15T12:02:20.072Z,680
2017-04-15T12:03:21.396Z,565
2017-04-15T12:04:22.644Z,415
2017-04-15T12:05:23.891Z,290
2017-04-15T12:06:25.156Z,260
2017-04-15T12:07:26.465Z,185
2017-04-15T12:08:27.703Z,150
2017-04-15T12:09:28.989Z,135
2017-04-15T12:10:30.275Z,135
2017-04-15T12:11:31.599Z,130
2017-04-15T12:12:32.922Z,125
2017-04-15T12:13:34.140Z,125
2017-04-15T12:14:35.384Z,135
2017-04-15T12:15:36.623Z,240
2017-04-15T12:16:37.875Z,375
2017-04-15T12:17:39.177Z,445
2017-04-15T12:18:40.415Z,560
2017-04-15T12:19:41.682Z,640
2017-04-15T12:20:42.954Z,685
2017-04-15T12:21:44.201Z,695
2017-04-15T12:22:45.602Z,715
2017-04-15T12:23:46.893Z,730
2017-04-15T12:24:48.102Z,730
2017-04-15T12:25:49.371Z,725
2017-04-15T12:26:50.626Z,710
2017-04-15T12:27:51.967Z,715
2017-04-15T12:28:53.295Z,710
2017-04-15T12:29:54.637Z,700
2017-04-15T12:30:55.876Z,700
2017-04-15T12:31:57.131Z,700
2017-04-15T12:32:58.398Z,710
2017-04-15T12:33:59.645Z,700
2017-04-15T12:35:00.896Z,690
2017-04-15T12:36:02.149Z,675
2017-04-15T12:37:03.392Z,675
2017-04-15T12:38:04.633Z,690
2017-04-15T12:39:05.895Z,700
2017-04-15T12:40:07.212Z,710
2017-04-15T12:41:08.566Z,720
2017-04-15T12:42:09.807Z,705
2017-04-15T12:43:11.047Z,690
2017-04-15T12:44:12.369Z,625
2017-04-15T12:45:13.544Z,600
2017-04-15T12:46:14.812Z,530
2017-04-15T12:47:16.087Z,470
2017-04-15T12:48:17.317Z,455
2017-04-15T12:49:18.565Z,475
2017-04-15T12:50:19.833Z,475
2017-04-15T12:51:21.179Z,475
2017-04-15T12:52:22.486Z,455
2017-04-15T12:53:23.735Z,500
2017-04-15T12:54:25.104Z,535
2017-04-15T12:55:26.343Z,535
2017-04-15T12:56:27.762Z,530
2017-04-15T12:57:29.089Z,540
2017-04-15T12:58:30.356Z,565
2017-04-15T12:59:31.599Z,585
2017-04-15T13:00:32.981Z,590
2017-04-15T13:01:34.253Z,585
2017-04-15T13:02:35.503Z,605
2017-04-15T13:03:36.770Z,615
2017-04-15T13:04:38.024Z,640
2017-04-15T13:05:39.325Z,645
2017-04-15T13:06:40.560Z,615
2017-04-15T13:07:41.847Z,550
2017-04-15T13:08:43.161Z,530
2017-04-15T13:09:44.429Z,490
2017-04-15T13:10:45.673Z,430
2017-04-15T13:11:47.067Z,435
2017-04-15T13:12:48.330Z,450
2017-04-15T13:13:49.547Z,415
2017-04-15T13:14:50.864Z,375
2017-04-15T13:15:52.123Z,385
2017-04-15T13:16:53.343Z,400
2017-04-15T13:17:54.594Z,465
2017-04-15T13:18:55.859Z,540
2017-04-15T13:19:57.105Z,595
2017-04-15T13:20:58.380Z,630
2017-04-15T13:21:59.622Z,625
2017-04-15T13:23:00.894Z,570
2017-04-15T13:24:02.120Z,495
2017-04-15T13:25:03.359Z,465
2017-04-15T13:26:04.628Z,430
2017-04-15T13:27:05.850Z,380
2017-04-15T13:28:07.185Z,305
2017-04-15T13:29:08.459Z,240
2017-04-15T13:30:09.754Z,205
2017-04-15T13:31:11.001Z,165
2017-04-15T13:32:12.360Z,160
2017-04-15T13:33:13.594Z,160
2017-04-15T13:34:14.840Z,165
2017-04-15T13:35:16.089Z,195
2017-04-15T13:36:17.366Z,205
2017-04-15T13:37:18.611Z,240
2017-04-15T13:38:19.836Z,305
2017-04-15T13:39:21.066Z,360
2017-04-15T13:40:22.363Z,445
2017-04-15T13:41:23.623Z,505
2017-04-15T13:42:24.896Z,545
2017-04-15T13:43:26.110Z,580
2017-04-15T13:44:27.348Z,600
2017-04-15T13:45:28.667Z,595
2017-04-15T13:46:29.932Z,585
2017-04-15T13:47:31.199Z,580
2017-04-15T13:48:32.536Z,570
2017-04-15T13:49:33.769Z,575
2017-04-15T13:50:35.013Z,580
2017-04-15T13:51:36.297Z,565
2017-04-15T13:52:37.542Z,555
2017-04-15T13:53:38.864Z,555
2017-04-15T13:54:40.122Z,540
2017-04-15T13:55:41.361Z,540
2017-04-15T13:56:42.681Z,535
2017-04-15T13:57:44.020Z,540
2017-04-15T13:58:45.300Z,550
2017-04-15T13:59:46.557Z,550
2017-04-15T14:00:47.815Z,550
2017-04-15T14:01:49.145Z,550
2017-04-15T14:02:50.389Z,545
2017-04-15T14:03:51.626Z,540
2017-04-15T14:04:52.913Z,545
2017-04-15T14:05:54.138Z,540
2017-04-15T14:06:55.403Z,540
2017-04-15T14:07:56.653Z,535
2017-04-15T14:08:57.888Z,530
2017-04-15T14:09:59.128Z,530
2017-04-15T14:11:00.491Z,530
2017-04-15T14:12:01.864Z,530
2017-04-15T14:13:03.117Z,530
2017-04-15T14:14:04.364Z,530
2017-04-15T14:15:05.613Z,525
2017-04-15T14:16:07.011Z,520
2017-04-15T14:17:08.375Z,515
2017-04-15T14:18:09.665Z,520
2017-04-15T14:19:10.904Z,520
2017-04-15T14:20:12.155Z,515
2017-04-15T14:21:13.393Z,505
2017-04-15T14:22:14.656Z,490
2017-04-15T14:23:15.972Z,475
2017-04-15T14:24:17.158Z,455
2017-04-15T14:25:18.420Z,460
2017-04-15T14:26:19.646Z,465
2017-04-15T14:27:20.901Z,465
2017-04-15T14:28:22.121Z,465